Time;durP1;ratioP1;P1;durP2;ratioP2;P2;SDS_P1;SDS_P2;PMS_P1;PMS_P2;Temp;Humidity;BMP_temperature;BMP_pressure;BME280_temperature;BME280_humidity;BME280_pressure;Samples;Min_cycle;Max_cycle;Signal;HPM_P1;HPM_P2
2023/09/02 00:04:44;;;;;;;;;;;14.60;99.90;;;;;;12275146;28;20360;-84
2023/09/02 00:10:46;;;;;;;;;;;14.60;99.90;;;;;;12270956;28;19931;-84
2023/09/02 00:16:48;;;;;;;;;;;14.60;99.90;;;;;;12276796;28;19973;-84
2023/09/02 00:22:49;;;;;;;;;;;14.50;99.90;;;;;;12270233;28;19938;-83
2023/09/02 00:28:51;;;;;;;;;;;14.50;99.90;;;;;;12272029;28;19937;-83
2023/09/02 00:34:53;;;;;;;;;;;14.50;99.90;;;;;;12269158;28;19931;-84
2023/09/02 00:40:58;;;;;;;;;;;14.50;99.90;;;;;;12277146;28;19931;-83
2023/09/02 00:47:01;;;;;;;;;;;14.50;99.90;;;;;;12271783;28;19937;-83
2023/09/02 00:53:03;;;;;;;;;;;14.50;99.90;;;;;;12277068;28;19974;-83
2023/09/02 00:59:05;;;;;;;;;;;14.50;99.90;;;;;;12289065;28;20013;-83
2023/09/02 01:05:07;;;;;;;;;;;14.50;99.90;;;;;;12274457;28;19934;-83
2023/09/02 01:11:09;;;;;;;;;;;14.50;99.90;;;;;;12293781;28;20036;-83
2023/09/02 01:17:11;;;;;;;;;;;14.50;99.90;;;;;;12273739;28;19935;-83
2023/09/02 01:23:12;;;;;;;;;;;14.50;99.90;;;;;;12268582;28;20413;-83
2023/09/02 01:29:18;;;;;;;;;;;14.50;99.90;;;;;;12269610;28;20417;-83
2023/09/02 01:35:23;;;;;;;;;;;14.50;99.90;;;;;;12292137;28;20001;-82
2023/09/02 01:41:27;;;;;;;;;;;14.50;99.90;;;;;;12271564;28;20561;-82
2023/09/02 01:47:29;;;;;;;;;;;14.60;99.90;;;;;;12273385;28;19937;-83
2023/09/02 01:53:31;;;;;;;;;;;14.60;99.90;;;;;;12272246;28;19930;-82
2023/09/02 01:59:33;;;;;;;;;;;14.70;99.90;;;;;;12273049;28;19969;-82
2023/09/02 02:05:37;;;;;;;;;;;14.70;99.90;;;;;;12274678;28;19930;-82
2023/09/02 02:11:39;;;;;;;;;;;14.80;99.90;;;;;;12270476;28;19930;-82
2023/09/02 02:17:41;;;;;;;;;;;14.80;99.90;;;;;;12269588;28;19937;-83
2023/09/02 02:23:43;;;;;;;;;;;14.90;99.90;;;;;;12269479;28;20355;-82
2023/09/02 02:29:45;;;;;;;;;;;14.90;99.90;;;;;;12271838;28;19938;-83
2023/09/02 02:35:47;;;;;;;;;;;14.90;99.90;;;;;;12273439;28;20349;-82
2023/09/02 02:41:49;;;;;;;;;;;14.80;99.90;;;;;;12269030;28;20623;-83
2023/09/02 02:47:51;;;;;;;;;;;14.80;99.90;;;;;;12271800;28;19931;-83
2023/09/02 02:53:52;;;;;;;;;;;14.90;99.90;;;;;;12268038;28;19969;-84
2023/09/02 02:59:54;;;;;;;;;;;14.70;99.90;;;;;;12259648;28;19930;-84
2023/09/02 03:05:57;;;;;;;;;;;14.70;99.90;;;;;;12266723;28;19934;-84
2023/09/02 03:11:59;;;;;;;;;;;14.80;99.90;;;;;;12270274;28;19990;-83
2023/09/02 03:18:01;;;;;;;;;;;14.70;99.90;;;;;;12271340;28;19980;-83
2023/09/02 03:24:04;;;;;;;;;;;14.70;99.90;;;;;;12269140;28;19934;-83
2023/09/02 03:30:06;;;;;;;;;;;14.70;99.90;;;;;;12274414;28;19984;-83
2023/09/02 03:36:14;;;;;;;;;;;14.60;99.90;;;;;;12298444;28;19965;-83
2023/09/02 03:42:15;;;;;;;;;;;14.60;99.90;;;;;;12282015;28;19926;-84
2023/09/02 03:48:20;;;;;;;;;;;14.60;99.90;;;;;;12282269;28;19965;-83
2023/09/02 03:54:22;;;;;;;;;;;14.70;99.90;;;;;;12285614;28;19935;-84
2023/09/02 04:00:26;;;;;;;;;;;14.60;99.90;;;;;;12286631;28;20459;-84
2023/09/02 04:06:28;;;;;;;;;;;14.50;99.90;;;;;;12284004;28;21106;-84
2023/09/02 04:12:30;;;;;;;;;;;14.50;99.90;;;;;;12278956;28;20019;-84
2023/09/02 04:18:32;;;;;;;;;;;14.50;99.90;;;;;;12295774;28;19981;-84
2023/09/02 04:24:34;;;;;;;;;;;14.60;99.90;;;;;;12291899;28;20372;-84
2023/09/02 04:30:35;;;;;;;;;;;14.60;99.90;;;;;;12275330;28;19942;-83
2023/09/02 04:36:37;;;;;;;;;;;14.70;99.90;;;;;;12273741;28;19926;-83
2023/09/02 04:42:41;;;;;;;;;;;14.60;99.90;;;;;;12280854;28;19930;-84
2023/09/02 04:48:43;;;;;;;;;;;14.30;99.90;;;;;;12273935;28;19977;-84
2023/09/02 04:54:45;;;;;;;;;;;14.20;99.90;;;;;;12269574;28;19942;-84
2023/09/02 05:00:47;;;;;;;;;;;14.30;99.90;;;;;;12278104;28;19930;-82
2023/09/02 05:06:49;;;;;;;;;;;14.50;99.90;;;;;;12260125;28;19980;-82
2023/09/02 05:12:51;;;;;;;;;;;14.50;99.90;;;;;;12270042;28;19930;-82
2023/09/02 05:18:52;;;;;;;;;;;14.50;99.90;;;;;;12276728;28;19930;-82
2023/09/02 05:24:54;;;;;;;;;;;14.60;99.90;;;;;;12269450;28;19935;-83
2023/09/02 05:30:56;;;;;;;;;;;14.60;99.90;;;;;;12275310;28;19930;-82
2023/09/02 05:36:59;;;;;;;;;;;14.60;99.90;;;;;;12279898;28;19937;-81
2023/09/02 05:43:04;;;;;;;;;;;14.60;99.90;;;;;;12277988;28;19930;-82
2023/09/02 05:49:06;;;;;;;;;;;14.70;99.90;;;;;;12277808;28;19953;-82
2023/09/02 05:55:08;;;;;;;;;;;14.70;99.90;;;;;;12283270;28;20000;-82
2023/09/02 06:01:10;;;;;;;;;;;14.80;99.90;;;;;;12275496;28;19949;-82
2023/09/02 06:07:11;;;;;;;;;;;14.90;99.90;;;;;;12267494;28;19952;-82
2023/09/02 06:13:13;;;;;;;;;;;14.90;99.90;;;;;;12301393;28;19931;-82
2023/09/02 06:19:15;;;;;;;;;;;15.00;99.90;;;;;;12332644;28;19934;-82
2023/09/02 06:25:18;;;;;;;;;;;15.10;99.90;;;;;;12337612;28;19934;-82
2023/09/02 06:31:19;;;;;;;;;;;14.90;99.90;;;;;;12337583;28;19930;-82
2023/09/02 06:37:21;;;;;;;;;;;15.00;99.90;;;;;;12332267;28;19922;-82
2023/09/02 06:43:23;;;;;;;;;;;15.10;99.90;;;;;;12323035;28;19914;-82
2023/09/02 06:49:25;;;;;;;;;;;15.20;99.90;;;;;;12325722;28;19989;-82
2023/09/02 06:55:27;;;;;;;;;;;15.30;99.90;;;;;;12327949;28;19934;-81
2023/09/02 07:01:29;;;;;;;;;;;15.40;99.90;;;;;;12325665;28;19935;-81
2023/09/02 07:07:31;;;;;;;;;;;15.50;99.90;;;;;;12315983;28;19930;-82
2023/09/02 07:13:33;;;;;;;;;;;15.50;99.90;;;;;;12317967;28;19930;-81
2023/09/02 07:19:36;;;;;;;;;;;15.50;99.90;;;;;;12325434;28;20032;-82
2023/09/02 07:25:37;;;;;;;;;;;15.50;99.90;;;;;;12278537;28;19937;-83
2023/09/02 07:31:40;;;;;;;;;;;15.50;99.90;;;;;;12271021;28;19935;-82
2023/09/02 07:37:42;;;;;;;;;;;15.50;99.90;;;;;;12286571;28;19930;-83
2023/09/02 07:43:44;;;;;;;;;;;15.50;99.90;;;;;;12258524;28;19953;-84
2023/09/02 07:49:46;;;;;;;;;;;15.40;99.90;;;;;;12274386;28;19930;-83
2023/09/02 07:55:48;;;;;;;;;;;15.60;99.90;;;;;;12275289;28;19976;-83
2023/09/02 08:01:49;;;;;;;;;;;15.60;99.90;;;;;;12274703;28;19942;-82
2023/09/02 08:07:51;;;;;;;;;;;15.80;99.90;;;;;;12270315;28;19945;-83
2023/09/02 08:13:53;;;;;;;;;;;16.00;99.90;;;;;;12298115;28;19930;-83
2023/09/02 08:19:55;;;;;;;;;;;16.10;99.90;;;;;;12274669;28;19935;-83
2023/09/02 08:25:56;;;;;;;;;;;16.20;99.90;;;;;;12290760;28;19958;-83
2023/09/02 08:31:58;;;;;;;;;;;16.40;99.90;;;;;;12300768;28;19931;-83
2023/09/02 08:38:00;;;;;;;;;;;16.50;99.90;;;;;;12348820;28;19931;-83
2023/09/02 08:44:03;;;;;;;;;;;16.70;99.90;;;;;;12335503;28;19930;-83
2023/09/02 08:50:06;;;;;;;;;;;17.00;99.90;;;;;;12326483;28;20001;-82
2023/09/02 08:56:10;;;;;;;;;;;17.40;99.90;;;;;;12324347;28;19930;-82
2023/09/02 09:02:12;;;;;;;;;;;17.70;99.90;;;;;;12320529;28;19922;-82
2023/09/02 09:08:14;;;;;;;;;;;17.90;99.90;;;;;;12309744;28;20025;-82
2023/09/02 09:14:19;;;;;;;;;;;18.40;99.90;;;;;;12300712;28;19930;-81
2023/09/02 09:20:21;;;;;;;;;;;18.50;99.90;;;;;;12288055;28;20014;-82
2023/09/02 09:26:24;;;;;;;;;;;18.50;99.90;;;;;;12296873;28;20106;-83
2023/09/02 09:32:26;;;;;;;;;;;18.50;99.90;;;;;;12250298;28;19941;-82
2023/09/02 09:38:37;;;;;;;;;;;18.50;99.90;;;;;;12279235;28;19934;-81
2023/09/02 09:44:55;;;;;;;;;;;18.40;99.90;;;;;;12276406;28;19941;-81
2023/09/02 09:50:57;;;;;;;;;;;18.40;99.90;;;;;;12275767;28;19930;-83
2023/09/02 09:56:59;;;;;;;;;;;18.30;99.90;;;;;;12272718;28;20851;-82
2023/09/02 10:03:01;;;;;;;;;;;18.40;99.90;;;;;;12273242;28;19930;-82
2023/09/02 10:09:04;;;;;;;;;;;18.50;99.90;;;;;;12292217;28;20669;-82
2023/09/02 10:15:06;;;;;;;;;;;18.70;99.90;;;;;;12274082;28;20379;-82
2023/09/02 10:21:10;;;;;;;;;;;19.00;99.90;;;;;;12274316;28;20219;-81
2023/09/02 10:27:15;;;;;;;;;;;19.10;99.90;;;;;;12267221;28;20029;-81
2023/09/02 10:33:25;;;;;;;;;;;19.40;99.90;;;;;;12273459;28;19938;-82
2023/09/02 10:39:46;;;;;;;;;;;19.40;99.90;;;;;;12272701;28;20021;-82
2023/09/02 10:45:47;;;;;;;;;;;19.50;99.90;;;;;;12288249;28;19937;-82
2023/09/02 10:51:50;;;;;;;;;;;19.60;99.90;;;;;;12289753;28;19934;-82
2023/09/02 10:57:54;;;;;;;;;;;19.70;99.90;;;;;;12266897;28;19934;-81
2023/09/02 11:03:57;;;;;;;;;;;19.90;99.90;;;;;;12276070;28;19931;-82
2023/09/02 11:10:00;;;;;;;;;;;20.00;99.90;;;;;;12273631;28;20295;-82
2023/09/02 11:16:20;;;;;;;;;;;20.00;99.90;;;;;;12270647;28;19938;-81
2023/09/02 11:22:41;;;;;;;;;;;19.80;99.90;;;;;;12288949;28;19930;-81
2023/09/02 11:28:42;;;;;;;;;;;19.60;99.90;;;;;;12288279;28;19974;-82
2023/09/02 11:34:45;;;;;;;;;;;19.50;99.90;;;;;;12270749;28;19927;-81
2023/09/02 11:40:47;;;;;;;;;;;19.70;99.90;;;;;;12274549;28;20073;-81
2023/09/02 11:46:49;;;;;;;;;;;20.30;99.90;;;;;;12273883;28;20399;-81
2023/09/02 11:52:57;;;;;;;;;;;20.20;99.90;;;;;;12281176;28;19937;-82
2023/09/02 11:58:59;;;;;;;;;;;20.30;99.90;;;;;;12279937;28;19931;-83
2023/09/02 12:05:03;;;;;;;;;;;20.30;99.90;;;;;;12273102;28;19935;-83
2023/09/02 12:11:04;;;;;;;;;;;20.30;99.90;;;;;;12281044;28;19926;-82
2023/09/02 12:17:07;;;;;;;;;;;20.50;99.90;;;;;;12293331;28;20398;-83
2023/09/02 12:23:09;;;;;;;;;;;20.70;99.90;;;;;;12269403;28;19973;-83
2023/09/02 12:29:17;;;;;;;;;;;20.70;99.90;;;;;;12295720;28;19938;-82
2023/09/02 12:35:20;;;;;;;;;;;20.60;99.90;;;;;;12276726;28;19930;-83
2023/09/02 12:41:22;;;;;;;;;;;20.30;99.90;;;;;;12269317;28;19931;-82
2023/09/02 12:47:25;;;;;;;;;;;20.60;99.90;;;;;;12268786;28;20029;-83
2023/09/02 12:53:27;;;;;;;;;;;20.90;99.90;;;;;;12278642;28;20387;-82
2023/09/02 12:59:29;;;;;;;;;;;20.90;99.90;;;;;;12276508;28;20392;-82
2023/09/02 13:05:34;;;;;;;;;;;21.50;99.90;;;;;;12277507;28;19969;-82
2023/09/02 13:11:35;;;;;;;;;;;21.90;99.90;;;;;;12276927;28;19934;-83
2023/09/02 13:17:37;;;;;;;;;;;22.40;99.90;;;;;;12275300;28;19930;-83
2023/09/02 13:23:40;;;;;;;;;;;22.70;99.90;;;;;;12272835;28;20498;-83
2023/09/02 13:29:42;;;;;;;;;;;23.00;50.60;;;;;;12274246;28;20355;-83
2023/09/02 13:35:44;;;;;;;;;;;22.40;66.20;;;;;;12273884;28;19934;-83
2023/09/02 13:41:46;;;;;;;;;;;22.60;28.80;;;;;;12332073;28;19930;-83
2023/09/02 13:47:48;;;;;;;;;;;22.80;55.80;;;;;;12339513;28;19926;-82
2023/09/02 13:53:53;;;;;;;;;;;22.40;38.20;;;;;;12337468;28;20099;-83
2023/09/02 13:59:58;;;;;;;;;;;22.50;23.30;;;;;;12310410;28;19934;-80
2023/09/02 14:06:01;;;;;;;;;;;22.50;1.00;;;;;;12273185;28;20029;-83
2023/09/02 14:12:04;;;;;;;;;;;22.70;49.00;;;;;;12288993;28;19953;-83
2023/09/02 14:18:06;;;;;;;;;;;22.40;63.70;;;;;;12270274;28;20421;-83
2023/09/02 14:24:08;;;;;;;;;;;22.50;22.30;;;;;;12271651;28;20012;-83
2023/09/02 14:30:10;;;;;;;;;;;22.50;16.60;;;;;;12273259;28;19934;-82
2023/09/02 14:36:12;;;;;;;;;;;22.60;61.10;;;;;;12273549;28;19930;-83
2023/09/02 14:42:14;;;;;;;;;;;22.70;17.00;;;;;;12271972;28;19926;-83
2023/09/02 14:48:16;;;;;;;;;;;22.80;41.70;;;;;;12284856;28;19931;-82
2023/09/02 14:54:18;;;;;;;;;;;22.90;1.00;;;;;;12313579;28;19935;-82
2023/09/02 15:00:20;;;;;;;;;;;23.10;1.00;;;;;;12277240;28;19935;-81
2023/09/02 15:06:22;;;;;;;;;;;23.20;1.00;;;;;;12270250;28;20471;-82
2023/09/02 15:12:23;;;;;;;;;;;23.20;1.00;;;;;;12266296;28;19931;-82
2023/09/02 15:18:26;;;;;;;;;;;23.30;1.00;;;;;;12263457;28;19970;-82
2023/09/02 15:24:31;;;;;;;;;;;22.80;1.00;;;;;;12280460;28;19926;-80
2023/09/02 15:30:33;;;;;;;;;;;22.30;1.00;;;;;;12297668;28;19930;-81
2023/09/02 15:36:36;;;;;;;;;;;21.90;3.90;;;;;;12296227;28;19934;-84
2023/09/02 15:42:39;;;;;;;;;;;21.30;89.60;;;;;;12284765;28;20029;-82
2023/09/02 15:48:41;;;;;;;;;;;21.10;99.90;;;;;;12281880;28;19972;-82
2023/09/02 15:54:43;;;;;;;;;;;20.80;97.40;;;;;;12310071;28;19934;-82
2023/09/02 16:00:44;;;;;;;;;;;20.70;99.90;;;;;;12290631;28;20379;-82
2023/09/02 16:06:46;;;;;;;;;;;20.60;99.90;;;;;;12283567;28;20034;-82
2023/09/02 16:12:48;;;;;;;;;;;20.60;99.90;;;;;;12275735;28;19930;-82
2023/09/02 16:18:50;;;;;;;;;;;20.80;99.90;;;;;;12283032;28;20017;-82
2023/09/02 16:24:52;;;;;;;;;;;20.80;99.90;;;;;;12276069;28;19933;-82
2023/09/02 16:30:53;;;;;;;;;;;20.80;99.90;;;;;;12288772;28;19931;-82
2023/09/02 16:36:58;;;;;;;;;;;20.50;99.90;;;;;;12291470;28;19934;-82
2023/09/02 16:43:01;;;;;;;;;;;20.60;99.90;;;;;;12302889;28;19939;-82
2023/09/02 16:49:03;;;;;;;;;;;20.80;99.90;;;;;;12281305;28;20421;-81
2023/09/02 16:55:06;;;;;;;;;;;20.90;99.90;;;;;;12293640;28;19985;-82
2023/09/02 17:01:12;;;;;;;;;;;20.70;99.90;;;;;;12284177;28;20347;-81
2023/09/02 17:07:14;;;;;;;;;;;20.30;99.90;;;;;;12278816;28;19978;-82
2023/09/02 17:13:16;;;;;;;;;;;20.20;99.90;;;;;;12281257;28;20029;-81
2023/09/02 17:19:18;;;;;;;;;;;20.00;99.90;;;;;;12277081;28;20013;-82
2023/09/02 17:25:21;;;;;;;;;;;19.80;99.90;;;;;;12305283;28;19935;-82
2023/09/02 17:31:22;;;;;;;;;;;19.70;99.90;;;;;;12345955;28;19935;-82
2023/09/02 17:37:24;;;;;;;;;;;19.60;99.90;;;;;;12316562;28;19965;-83
2023/09/02 17:43:26;;;;;;;;;;;19.50;99.90;;;;;;12331791;28;19914;-83
2023/09/02 17:49:28;;;;;;;;;;;19.30;99.90;;;;;;12330299;28;19983;-82
2023/09/02 17:55:30;;;;;;;;;;;19.30;99.90;;;;;;12336920;28;19914;-83
2023/09/02 18:01:31;;;;;;;;;;;19.20;99.90;;;;;;12286140;28;19930;-82
2023/09/02 18:07:37;;;;;;;;;;;19.00;99.90;;;;;;12269304;28;20280;-83
2023/09/02 18:13:38;;;;;;;;;;;19.00;99.90;;;;;;12276473;28;19938;-83
2023/09/02 18:19:40;;;;;;;;;;;18.90;99.90;;;;;;12288026;28;19935;-83
2023/09/02 18:25:42;;;;;;;;;;;18.90;99.90;;;;;;12263640;28;19930;-83
2023/09/02 18:31:44;;;;;;;;;;;18.80;99.90;;;;;;12268593;28;20021;-84
2023/09/02 18:37:46;;;;;;;;;;;18.80;99.90;;;;;;12267599;28;20381;-83
2023/09/02 18:43:48;;;;;;;;;;;18.80;99.90;;;;;;12271293;28;20335;-83
2023/09/02 18:49:50;;;;;;;;;;;18.80;99.90;;;;;;12270400;28;19931;-84
2023/09/02 18:55:51;;;;;;;;;;;18.60;99.90;;;;;;12265184;28;19981;-82
2023/09/02 19:01:53;;;;;;;;;;;18.70;99.90;;;;;;12268223;28;20600;-83
2023/09/02 19:07:55;;;;;;;;;;;18.60;99.90;;;;;;12269830;28;19938;-82
2023/09/02 19:13:57;;;;;;;;;;;18.60;99.90;;;;;;12272069;28;19977;-82
2023/09/02 19:20:03;;;;;;;;;;;18.60;99.90;;;;;;12266828;28;19984;-82
2023/09/02 19:26:06;;;;;;;;;;;18.50;99.90;;;;;;12265292;28;19938;-82
2023/09/02 19:32:08;;;;;;;;;;;18.50;99.90;;;;;;12265796;28;20391;-82
2023/09/02 19:38:10;;;;;;;;;;;18.40;99.90;;;;;;12271372;28;19938;-82
2023/09/02 19:44:13;;;;;;;;;;;18.50;99.90;;;;;;12265250;28;19931;-82
2023/09/02 19:50:15;;;;;;;;;;;18.40;99.90;;;;;;12286266;28;19936;-82
2023/09/02 19:56:17;;;;;;;;;;;18.20;99.90;;;;;;12268773;28;19965;-82
2023/09/02 20:02:18;;;;;;;;;;;18.20;99.90;;;;;;12268532;28;20030;-82
2023/09/02 20:08:20;;;;;;;;;;;18.10;99.90;;;;;;12277702;28;19988;-83
2023/09/02 20:14:23;;;;;;;;;;;18.00;99.90;;;;;;12276834;28;20291;-84
2023/09/02 20:20:28;;;;;;;;;;;17.90;99.90;;;;;;12292870;28;20352;-84
2023/09/02 20:26:29;;;;;;;;;;;17.80;99.90;;;;;;12280698;28;20017;-83
2023/09/02 20:32:31;;;;;;;;;;;17.80;99.90;;;;;;12270173;28;19965;-84
2023/09/02 20:38:33;;;;;;;;;;;17.80;99.90;;;;;;12276798;28;19933;-83
2023/09/02 20:44:36;;;;;;;;;;;17.80;99.90;;;;;;12274178;28;19938;-83
2023/09/02 20:50:39;;;;;;;;;;;17.70;99.90;;;;;;12274188;28;20556;-84
2023/09/02 20:56:43;;;;;;;;;;;17.50;99.90;;;;;;12274957;28;20028;-84
2023/09/02 21:02:45;;;;;;;;;;;17.40;99.90;;;;;;12286891;28;20013;-83
2023/09/02 21:08:47;;;;;;;;;;;17.40;99.90;;;;;;12271935;28;20314;-84
2023/09/02 21:14:51;;;;;;;;;;;17.40;99.90;;;;;;12271710;28;19932;-84
2023/09/02 21:20:53;;;;;;;;;;;17.40;99.90;;;;;;12291299;28;19997;-83
2023/09/02 21:26:54;;;;;;;;;;;17.50;99.90;;;;;;12275447;28;19934;-83
2023/09/02 21:32:59;;;;;;;;;;;17.40;99.90;;;;;;12275118;28;20010;-83
2023/09/02 21:39:00;;;;;;;;;;;17.30;99.90;;;;;;12272600;28;19941;-83
2023/09/02 21:45:03;;;;;;;;;;;17.10;99.90;;;;;;12274529;28;19931;-83
2023/09/02 21:51:09;;;;;;;;;;;17.00;99.90;;;;;;12268263;28;20913;-83
2023/09/02 21:57:11;;;;;;;;;;;16.90;99.90;;;;;;12271346;28;19934;-82
2023/09/02 22:03:12;;;;;;;;;;;16.90;99.90;;;;;;12268496;28;19930;-83
2023/09/02 22:09:15;;;;;;;;;;;16.90;99.90;;;;;;12268495;28;19934;-83
2023/09/02 22:15:16;;;;;;;;;;;16.90;99.90;;;;;;12274243;28;20449;-83
2023/09/02 22:21:18;;;;;;;;;;;16.90;99.90;;;;;;12290940;28;20057;-83
2023/09/02 22:27:20;;;;;;;;;;;16.80;99.90;;;;;;12289194;28;19984;-83
2023/09/02 22:33:26;;;;;;;;;;;16.80;99.90;;;;;;12266762;28;19981;-83
2023/09/02 22:39:29;;;;;;;;;;;16.80;99.90;;;;;;12269978;28;19935;-83
2023/09/02 22:45:34;;;;;;;;;;;16.60;99.90;;;;;;12274303;28;20435;-83
2023/09/02 22:51:36;;;;;;;;;;;16.50;99.90;;;;;;12272486;28;19985;-83
2023/09/02 22:57:38;;;;;;;;;;;16.50;99.90;;;;;;12287193;28;19937;-83
2023/09/02 23:03:41;;;;;;;;;;;16.50;99.90;;;;;;12288436;28;19926;-83
2023/09/02 23:09:44;;;;;;;;;;;16.30;99.90;;;;;;12272994;28;20421;-83
2023/09/02 23:15:46;;;;;;;;;;;16.30;99.90;;;;;;12262684;28;19926;-83
2023/09/02 23:21:49;;;;;;;;;;;16.20;99.90;;;;;;12271397;28;19965;-83
2023/09/02 23:27:51;;;;;;;;;;;16.20;99.90;;;;;;12266546;28;20025;-83
2023/09/02 23:33:53;;;;;;;;;;;16.20;99.90;;;;;;12268975;28;19938;-83
2023/09/02 23:39:55;;;;;;;;;;;16.20;99.90;;;;;;12273953;28;19930;-83
2023/09/02 23:45:57;;;;;;;;;;;16.10;99.90;;;;;;12274348;28;19941;-83
2023/09/02 23:51:59;;;;;;;;;;;16.10;99.90;;;;;;12291179;28;19930;-83
2023/09/02 23:58:00;;;;;;;;;;;16.00;99.90;;;;;;12275984;28;19937;-83
